Ted Stevens International Airport (ANC)

 

Airport Diagram
Current Weather/Forecast (VFR Conditions)
METAR PANC 312153Z 15017G26KT 10SM FEW070 SCT110 BKN160 08/00 A2872 RMK AO2 PK WND 13035/2108 SLP728 T00780000 $
TAF PANC 312108Z 3121/0124 15020G30KT P6SM SCT060 BKN100 FM010000 16015G22KT P6SM VCSH OVC050 FM010400 23012KT 6SM -SN OVC045 FM010600 17011KT 1/2SM SN FG SCT010 OVC020 FM011300 22010KT 3SM -SN BR OVC015 FM011700 18008KT P6SM VCSH SCT020 OVC045

All Charts

Inbound Traffic (Arrivals)

No inbound traffic.


Outbound Traffic (Departures)

No outbound traffic.